Time;durP1;ratioP1;P1;durP2;ratioP2;P2;SDS_P1;SDS_P2;PMS_P1;PMS_P2;Temp;Humidity;BMP_temperature;BMP_pressure;BME280_temperature;BME280_humidity;BME280_pressure;Samples;Min_cycle;Max_cycle;Signal;HPM_P1;HPM_P2
2022/05/04 00:01:08;;;;;;;9.68;4.93;;;358.60;2304.00;;;;;;5094303;28;20028;-68
2022/05/04 00:03:39;;;;;;;9.15;5.07;;;358.60;2252.80;;;;;;5094134;28;20016;-69
2022/05/04 00:06:08;;;;;;;6.20;5.15;;;358.80;2252.80;;;;;;5094097;28;20038;-69
2022/05/04 00:08:34;;;;;;;6.82;5.20;;;358.80;2227.20;;;;;;5094140;28;20016;-69
2022/05/04 00:11:01;;;;;;;6.00;4.90;;;358.80;2252.80;;;;;;5094132;28;20024;-68
2022/05/04 00:13:27;;;;;;;8.60;4.85;;;358.70;2227.20;;;;;;5093881;28;20088;-69
2022/05/04 00:15:53;;;;;;;6.30;5.15;;;358.70;2252.80;;;;;;5093402;28;20078;-68
2022/05/04 00:18:19;;;;;;;9.02;4.82;;;358.70;2278.40;;;;;;5093999;28;20016;-68
2022/05/04 00:20:45;;;;;;;9.80;5.50;;;358.60;2252.80;;;;;;5093677;28;20024;-69
2022/05/04 00:23:12;;;;;;;7.35;5.72;;;358.70;2278.40;;;;;;5094059;28;20426;-69
2022/05/04 00:25:39;;;;;;;8.60;5.82;;;358.60;2304.00;;;;;;5094076;28;20512;-69
2022/05/04 00:28:05;;;;;;;10.45;5.75;;;358.40;2304.00;;;;;;5093777;28;20035;-68
2022/05/04 00:30:32;;;;;;;7.18;5.75;;;358.40;2329.60;;;;;;5093852;28;20103;-68
2022/05/04 00:32:59;;;;;;;7.07;5.20;;;358.40;2329.60;;;;;;5093982;28;20047;-68
2022/05/04 00:35:25;;;;;;;7.68;5.43;;;358.40;2329.60;;;;;;5093493;28;20076;-69
2022/05/04 00:37:51;;;;;;;7.75;5.60;;;333.60;2329.60;;;;;;5093972;28;20055;-69
2022/05/04 00:40:17;;;;;;;10.75;5.90;;;333.50;2329.60;;;;;;5093902;28;20023;-69
2022/05/04 00:42:42;;;;;;;8.52;6.15;;;333.50;2329.60;;;;;;5092456;28;20028;-68
2022/05/04 00:45:09;;;;;;;8.68;6.28;;;333.50;2329.60;;;;;;5093315;28;20060;-69
2022/05/04 00:47:35;;;;;;;12.13;5.95;;;333.40;2329.60;;;;;;5093844;28;20024;-69
2022/05/04 00:50:04;;;;;;;8.20;5.57;;;333.30;2329.60;;;;;;5093636;28;20024;-69
2022/05/04 00:52:32;;;;;;;10.75;5.88;;;333.30;2329.60;;;;;;5093759;28;20129;-69
2022/05/04 00:54:59;;;;;;;12.38;5.47;;;333.20;2329.60;;;;;;5093773;28;20119;-68
2022/05/04 01:00:12;;;;;;;9.88;6.15;;;333.10;2329.60;;;;;;5093522;28;20064;-68
2022/05/04 01:02:39;;;;;;;13.23;6.20;;;333.10;2329.60;;;;;;5093562;28;20035;-68
2022/05/04 01:05:11;;;;;;;10.93;6.38;;;333.10;2329.60;;;;;;5093250;28;20040;-69
2022/05/04 01:07:42;;;;;;;7.35;6.57;;;333.00;2329.60;;;;;;5093415;28;20027;-69
2022/05/04 01:10:10;;;;;;;8.20;6.18;;;333.00;2329.60;;;;;;5093621;28;20023;-68
2022/05/04 01:12:44;;;;;;;10.15;6.85;;;333.00;2329.60;;;;;;5093252;28;20067;-69
2022/05/04 01:15:10;;;;;;;12.18;6.82;;;333.00;2329.60;;;;;;5093352;28;20573;-68
2022/05/04 01:17:36;;;;;;;9.50;6.93;;;333.00;2329.60;;;;;;5093247;28;20051;-68
2022/05/04 01:20:02;;;;;;;9.23;6.97;;;333.00;2329.60;;;;;;5093130;28;20052;-69
2022/05/04 01:22:28;;;;;;;8.88;6.32;;;333.00;2329.60;;;;;;5093601;28;20081;-69
2022/05/04 01:24:54;;;;;;;10.73;7.55;;;333.00;2329.60;;;;;;5092954;28;20028;-69
2022/05/04 01:27:20;;;;;;;10.57;7.07;;;333.00;2329.60;;;;;;5095884;28;20035;-69
2022/05/04 01:29:47;;;;;;;11.80;7.35;;;333.00;2329.60;;;;;;5097181;28;20020;-68
2022/05/04 01:32:13;;;;;;;11.13;7.32;;;333.10;2329.60;;;;;;5097501;28;20097;-69
2022/05/04 01:34:39;;;;;;;9.07;7.20;;;333.10;2329.60;;;;;;5097442;28;20439;-69
2022/05/04 01:37:05;;;;;;;10.13;7.47;;;333.10;2329.60;;;;;;5096691;28;20044;-69
2022/05/04 01:39:31;;;;;;;11.88;7.72;;;333.10;2329.60;;;;;;5097109;28;20028;-69
2022/05/04 01:42:03;;;;;;;12.68;7.85;;;333.10;2329.60;;;;;;5096838;28;20028;-68
2022/05/04 01:44:30;;;;;;;12.55;7.68;;;333.00;2329.60;;;;;;5096955;28;20020;-68
2022/05/04 01:46:56;;;;;;;13.73;8.38;;;333.20;2329.60;;;;;;5096643;28;20044;-75
2022/05/04 01:49:21;;;;;;;9.00;7.25;;;333.10;2329.60;;;;;;5096804;28;20046;-68
2022/05/04 01:51:47;;;;;;;11.63;7.40;;;333.10;2329.60;;;;;;5096811;28;20028;-68
2022/05/04 01:54:14;;;;;;;17.42;8.20;;;333.10;2329.60;;;;;;5096533;28;20110;-69
2022/05/04 01:56:39;;;;;;;10.20;7.90;;;333.10;2329.60;;;;;;5096390;28;20020;-69
2022/05/04 01:59:05;;;;;;;12.02;8.15;;;333.00;2329.60;;;;;;5078527;28;20039;-68
2022/05/04 02:01:31;;;;;;;8.95;7.80;;;333.00;2329.60;;;;;;5096580;28;20077;-68
2022/05/04 02:03:58;;;;;;;12.02;8.43;;;333.00;2329.60;;;;;;5096577;28;20024;-68
2022/05/04 02:06:25;;;;;;;11.70;8.43;;;333.00;2329.60;;;;;;5096324;28;20089;-68
2022/05/04 02:08:51;;;;;;;13.90;7.80;;;333.10;2329.60;;;;;;5096635;28;20380;-68
2022/05/04 02:11:17;;;;;;;10.55;8.02;;;333.10;2329.60;;;;;;5096686;28;20020;-68
2022/05/04 02:13:43;;;;;;;11.75;8.00;;;333.00;2329.60;;;;;;5096462;28;20027;-68
2022/05/04 02:16:09;;;;;;;11.60;8.30;;;333.00;2329.60;;;;;;5095973;28;20034;-69
2022/05/04 02:18:35;;;;;;;12.00;8.63;;;332.90;2329.60;;;;;;5096025;28;20111;-68
2022/05/04 02:21:02;;;;;;;12.60;7.82;;;332.90;2329.60;;;;;;5096379;28;20016;-68
2022/05/04 02:23:28;;;;;;;12.30;8.30;;;332.90;2329.60;;;;;;5096206;28;20031;-69
2022/05/04 02:25:54;;;;;;;11.98;8.48;;;332.90;2329.60;;;;;;5096084;28;20036;-69
2022/05/04 02:28:20;;;;;;;15.38;9.25;;;332.90;2329.60;;;;;;5095673;28;20377;-68
2022/05/04 02:30:45;;;;;;;12.85;8.23;;;332.90;2329.60;;;;;;5096276;28;20103;-68
2022/05/04 02:33:14;;;;;;;10.93;9.00;;;332.90;2329.60;;;;;;5095833;28;20154;-68
2022/05/04 02:38:24;;;;;;;12.15;9.38;;;332.80;2329.60;;;;;;5094801;28;20445;-68
2022/05/04 02:40:51;;;;;;;16.40;9.77;;;332.90;2329.60;;;;;;5095722;28;20093;-68
2022/05/04 02:43:17;;;;;;;14.10;9.77;;;333.00;2329.60;;;;;;5095759;28;20020;-69
2022/05/04 02:45:43;;;;;;;12.10;9.25;;;332.90;2329.60;;;;;;5095741;28;20484;-68
2022/05/04 02:48:09;;;;;;;13.23;9.00;;;332.80;2329.60;;;;;;5096015;28;20035;-68
2022/05/04 02:50:35;;;;;;;11.35;9.50;;;332.90;2329.60;;;;;;5095735;28;20460;-68
2022/05/04 02:53:02;;;;;;;13.32;9.32;;;332.80;2329.60;;;;;;5095807;28;20024;-68
2022/05/04 02:55:28;;;;;;;11.55;9.60;;;332.80;2329.60;;;;;;5095490;28;20038;-69
2022/05/04 02:57:54;;;;;;;17.60;9.88;;;332.90;2329.60;;;;;;5095368;28;20028;-68
2022/05/04 03:00:20;;;;;;;14.57;10.48;;;333.00;2329.60;;;;;;5095173;28;20111;-69
2022/05/04 03:02:46;;;;;;;17.63;11.05;;;332.90;2329.60;;;;;;5094035;28;20032;-71
2022/05/04 03:05:13;;;;;;;15.75;10.25;;;332.90;2329.60;;;;;;5093924;28;20532;-75
2022/05/04 03:07:40;;;;;;;16.08;10.25;;;332.90;2329.60;;;;;;5094731;28;20039;-71
2022/05/04 03:10:06;;;;;;;15.70;10.90;;;333.00;2329.60;;;;;;5094545;28;20032;-74
2022/05/04 03:12:32;;;;;;;13.57;10.30;;;333.00;2329.60;;;;;;5093810;28;20024;-74
2022/05/04 03:14:58;;;;;;;15.15;10.63;;;333.00;2329.60;;;;;;5093736;28;20475;-74
2022/05/04 03:17:25;;;;;;;12.38;9.90;;;333.00;2329.60;;;;;;5093634;28;20032;-69
2022/05/04 03:19:51;;;;;;;13.50;10.52;;;333.00;2329.60;;;;;;5093902;28;20035;-76
2022/05/04 03:22:18;;;;;;;13.20;9.85;;;333.10;2329.60;;;;;;5093613;28;20039;-76
2022/05/04 03:24:44;;;;;;;15.35;10.60;;;333.10;2329.60;;;;;;5093556;28;20089;-76
2022/05/04 03:27:10;;;;;;;13.63;10.00;;;333.00;2329.60;;;;;;5093539;28;20469;-75
2022/05/04 03:29:35;;;;;;;17.50;10.07;;;333.30;2304.00;;;;;;5083656;28;20024;-69
2022/05/04 03:32:03;;;;;;;15.38;10.00;;;333.10;2329.60;;;;;;5093517;28;20028;-75
2022/05/04 03:34:29;;;;;;;12.77;11.10;;;333.00;2329.60;;;;;;5093701;28;20036;-74
2022/05/04 03:36:55;;;;;;;15.13;10.57;;;333.00;2329.60;;;;;;5093189;28;20097;-69
2022/05/04 03:39:21;;;;;;;19.10;11.65;;;333.10;2329.60;;;;;;5093391;28;20036;-75
2022/05/04 03:41:47;;;;;;;18.52;11.45;;;333.20;2329.60;;;;;;5075106;28;20073;-68
2022/05/04 03:44:12;;;;;;;23.00;11.07;;;333.20;2304.00;;;;;;5093232;28;20385;-75
2022/05/04 03:46:44;;;;;;;16.85;10.55;;;333.20;2304.00;;;;;;5093522;28;20036;-75
2022/05/04 03:49:11;;;;;;;16.48;10.48;;;333.30;2304.00;;;;;;5093122;28;20445;-74
2022/05/04 03:51:37;;;;;;;25.13;11.20;;;333.30;2278.40;;;;;;5093471;28;20032;-69
2022/05/04 03:54:03;;;;;;;25.55;12.70;;;333.40;2278.40;;;;;;5093518;28;20085;-74
2022/05/04 03:56:29;;;;;;;19.95;11.95;;;333.40;2304.00;;;;;;5093245;28;20051;-74
2022/05/04 03:58:55;;;;;;;22.63;12.30;;;333.40;2304.00;;;;;;5092926;28;20069;-75
2022/05/04 04:01:21;;;;;;;28.00;13.15;;;333.40;2304.00;;;;;;5092852;28;20020;-73
2022/05/04 04:03:48;;;;;;;27.67;12.75;;;333.40;2304.00;;;;;;5093295;28;20038;-75
2022/05/04 04:06:14;;;;;;;21.60;13.07;;;333.50;2329.60;;;;;;5093259;28;20043;-68
2022/05/04 04:08:40;;;;;;;26.90;13.70;;;333.40;2329.60;;;;;;5092966;28;20465;-76
2022/05/04 04:11:06;;;;;;;21.48;11.32;;;333.50;2329.60;;;;;;5092693;28;20046;-72
2022/05/04 04:13:32;;;;;;;22.20;12.02;;;333.50;2304.00;;;;;;5092674;28;20525;-75
2022/05/04 04:15:57;;;;;;;17.15;11.02;;;333.40;2304.00;;;;;;5092912;28;20028;-75
2022/05/04 04:18:24;;;;;;;21.00;12.30;;;333.50;2278.40;;;;;;5093313;28;20043;-74
2022/05/04 04:23:36;;;;;;;21.10;12.85;;;333.70;2252.80;;;;;;5090892;28;20039;-68
2022/05/04 04:26:04;;;;;;;20.98;13.43;;;333.70;2252.80;;;;;;5092290;28;20036;-71
2022/05/04 04:28:30;;;;;;;23.77;13.38;;;333.70;2252.80;;;;;;5092618;28;20032;-75
2022/05/04 04:30:56;;;;;;;19.77;12.88;;;333.70;2227.20;;;;;;5091794;28;20032;-69
2022/05/04 04:33:26;;;;;;;20.20;12.27;;;333.70;2227.20;;;;;;5092222;28;20027;-68
2022/05/04 04:35:53;;;;;;;18.88;13.52;;;358.40;2252.80;;;;;;5071604;28;20059;-68
2022/05/04 04:38:19;;;;;;;18.40;12.85;;;358.40;2252.80;;;;;;5071775;28;20032;-76
2022/05/04 04:40:45;;;;;;;20.77;12.65;;;358.40;2252.80;;;;;;5065815;28;20071;-69
2022/05/04 04:43:11;;;;;;;26.05;13.30;;;358.50;2252.80;;;;;;5063201;28;20392;-75
2022/05/04 04:45:37;;;;;;;19.33;13.05;;;358.60;2227.20;;;;;;5053084;28;20080;-68
2022/05/04 04:48:03;;;;;;;23.70;12.60;;;358.70;2201.60;;;;;;5061541;28;20050;-69
2022/05/04 04:50:29;;;;;;;26.80;13.18;;;358.80;2201.60;;;;;;5066008;28;20445;-68
2022/05/04 04:52:55;;;;;;;20.73;12.60;;;358.90;2176.00;;;;;;5073490;28;20048;-69
2022/05/04 04:55:21;;;;;;;22.33;14.15;;;358.90;2201.60;;;;;;5067669;28;20068;-75
2022/05/04 04:57:47;;;;;;;33.17;13.73;;;359.00;2176.00;;;;;;5055890;28;20021;-68
2022/05/04 05:00:16;;;;;;;24.27;11.90;;;359.20;2176.00;;;;;;5054414;28;20037;-75
2022/05/04 05:02:42;;;;;;;23.38;12.18;;;359.20;2150.40;;;;;;5061667;28;20025;-73
2022/05/04 05:05:08;;;;;;;17.52;11.32;;;384.00;2124.80;;;;;;5063747;28;20081;-69
2022/05/04 05:07:35;;;;;;;19.42;11.88;;;384.10;2124.80;;;;;;5068043;28;20029;-69
2022/05/04 05:10:00;;;;;;;21.15;12.52;;;384.10;2124.80;;;;;;5062024;28;20009;-69
2022/05/04 05:12:26;;;;;;;24.35;12.48;;;384.20;2099.20;;;;;;5063693;28;20032;-74
2022/05/04 05:17:36;;;;;;;19.80;13.07;;;384.30;2073.60;;;;;;5060677;28;20074;-75
2022/05/04 05:20:04;;;;;;;21.95;13.02;;;384.20;2099.20;;;;;;5062022;28;20419;-75
2022/05/04 05:22:30;;;;;;;23.67;14.43;;;384.20;2073.60;;;;;;5063632;28;20492;-70
2022/05/04 05:24:56;;;;;;;25.98;14.38;;;384.30;2099.20;;;;;;5062304;28;20051;-69
2022/05/04 05:27:22;;;;;;;25.75;13.55;;;384.40;2099.20;;;;;;5062062;28;20063;-69
2022/05/04 05:29:49;;;;;;;19.80;12.50;;;384.40;2073.60;;;;;;5063495;28;20024;-75
2022/05/04 05:32:15;;;;;;;18.92;12.43;;;384.50;2073.60;;;;;;5062013;28;20060;-73
2022/05/04 05:34:40;;;;;;;22.42;12.95;;;384.70;2073.60;;;;;;5062015;28;20098;-75
2022/05/04 05:37:06;;;;;;;23.98;14.27;;;384.70;2073.60;;;;;;5091214;28;20040;-75
2022/05/04 05:39:33;;;;;;;22.67;14.40;;;384.90;2073.60;;;;;;5092658;28;20598;-68
2022/05/04 05:41:59;;;;;;;19.45;13.20;;;409.60;2073.60;;;;;;5092491;28;20469;-70
2022/05/04 05:44:25;;;;;;;19.65;13.07;;;409.70;2073.60;;;;;;5092607;28;20028;-74
2022/05/04 05:46:52;;;;;;;22.50;12.63;;;409.80;2073.60;;;;;;5092659;28;20032;-71
2022/05/04 05:49:18;;;;;;;18.05;12.50;;;409.90;2022.40;;;;;;5092547;28;20077;-69
2022/05/04 05:51:43;;;;;;;21.15;12.85;;;410.00;2048.00;;;;;;5092566;28;20028;-73
2022/05/04 05:54:09;;;;;;;19.83;12.70;;;410.10;2022.40;;;;;;5092441;28;20020;-70
2022/05/04 05:56:35;;;;;;;20.15;11.52;;;410.30;2048.00;;;;;;5074354;28;20111;-69
2022/05/04 05:59:01;;;;;;;19.85;11.80;;;410.40;2022.40;;;;;;5092754;28;20024;-69
2022/05/04 06:01:26;;;;;;;14.60;9.82;;;410.50;2022.40;;;;;;5092828;28;20040;-68
2022/05/04 06:03:52;;;;;;;17.40;9.82;;;435.20;1971.20;;;;;;5092847;28;20537;-71
2022/05/04 06:06:19;;;;;;;14.57;9.68;;;435.40;1971.20;;;;;;5092747;28;20066;-69
2022/05/04 06:08:45;;;;;;;13.77;9.40;;;435.50;1945.60;;;;;;5093027;28;20016;-69
2022/05/04 06:11:10;;;;;;;12.73;8.23;;;435.60;1945.60;;;;;;5092820;28;20032;-69
2022/05/04 06:13:36;;;;;;;12.23;8.60;;;435.70;1920.00;;;;;;5093499;28;20024;-70
2022/05/04 06:16:02;;;;;;;13.88;8.02;;;435.80;1920.00;;;;;;5096049;28;20035;-70
2022/05/04 06:18:28;;;;;;;12.15;7.22;;;436.00;1894.40;;;;;;5061459;28;20469;-69
2022/05/04 06:20:54;;;;;;;11.02;6.82;;;436.10;1843.20;;;;;;5077903;28;20119;-70
2022/05/04 06:23:19;;;;;;;10.80;6.78;;;460.90;1894.40;;;;;;5095465;28;20028;-69
2022/05/04 06:25:45;;;;;;;11.93;5.75;;;461.00;1843.20;;;;;;5077090;28;20484;-71
2022/05/04 06:28:12;;;;;;;8.15;5.53;;;461.10;1868.80;;;;;;5095679;28;20024;-69
2022/05/04 06:36:07;;;;;;;9.63;5.88;;;461.40;1817.60;;;;;;5095743;28;20404;-69
2022/05/04 06:38:33;;;;;;;10.32;5.45;;;461.60;1792.00;;;;;;5077670;28;20016;-69
2022/05/04 06:41:00;;;;;;;7.35;5.18;;;461.70;1817.60;;;;;;5095718;28;20574;-69
2022/05/04 06:43:26;;;;;;;10.75;6.05;;;486.40;1766.40;;;;;;5095804;28;20047;-69
2022/05/04 06:45:52;;;;;;;11.82;8.02;;;486.50;1740.80;;;;;;5076650;28;20112;-70
2022/05/04 06:48:18;;;;;;;13.85;5.32;;;486.50;1740.80;;;;;;5095252;28;20472;-69
2022/05/04 06:50:43;;;;;;;57.50;35.90;;;486.50;1715.20;;;;;;5094755;28;20108;-69
2022/05/04 06:53:09;;;;;;;16.17;10.40;;;486.60;1715.20;;;;;;5095001;28;20122;-69
2022/05/04 06:55:35;;;;;;;47.90;32.97;;;486.80;1689.60;;;;;;5095031;28;20115;-69
2022/05/04 06:58:01;;;;;;;15.73;8.18;;;487.00;1715.20;;;;;;5095125;28;20024;-68
2022/05/04 07:00:27;;;;;;;9.07;4.15;;;487.10;1664.00;;;;;;5094987;28;20034;-69
2022/05/04 07:02:52;;;;;;;13.18;8.15;;;487.20;1638.40;;;;;;5094940;28;20055;-69
2022/05/04 07:05:18;;;;;;;15.88;8.38;;;512.00;1638.40;;;;;;5094956;28;20062;-70
2022/05/04 07:07:44;;;;;;;9.27;5.05;;;512.10;1612.80;;;;;;5094828;28;20027;-69
2022/05/04 07:10:10;;;;;;;9.80;4.43;;;512.30;1587.20;;;;;;5094432;28;20377;-69
2022/05/04 07:12:36;;;;;;;5.30;4.13;;;512.60;1587.20;;;;;;5094692;28;20448;-69
2022/05/04 07:15:03;;;;;;;6.28;3.95;;;512.90;1561.60;;;;;;5094748;28;20020;-69
2022/05/04 07:17:29;;;;;;;7.43;4.05;;;537.70;1536.00;;;;;;5093193;28;20055;-70
2022/05/04 07:19:55;;;;;;;9.93;4.65;;;538.10;1536.00;;;;;;5094311;28;20030;-75
2022/05/04 07:22:22;;;;;;;8.57;4.35;;;538.20;1459.20;;;;;;5094470;28;20020;-76
2022/05/04 07:24:47;;;;;;;8.35;3.50;;;538.40;1484.80;;;;;;5094201;28;20019;-76
2022/05/04 07:27:13;;;;;;;10.82;4.07;;;563.40;1433.60;;;;;;5094624;28;20032;-71
2022/05/04 07:29:39;;;;;;;6.95;3.92;;;563.80;1433.60;;;;;;5094779;28;20085;-74
2022/05/04 07:32:05;;;;;;;8.52;3.78;;;588.80;1408.00;;;;;;5094374;28;20476;-76
2022/05/04 07:34:31;;;;;;;6.55;3.42;;;589.10;1356.80;;;;;;5094111;28;20023;-72
2022/05/04 07:36:57;;;;;;;10.73;4.18;;;589.20;1305.60;;;;;;5093812;28;20035;-75
2022/05/04 07:42:25;;;;;;;7.10;3.00;;;589.50;1254.40;;;;;;5091480;28;20103;-76
2022/05/04 07:44:59;;;;;;;7.22;2.80;;;589.50;1254.40;;;;;;5091951;28;20053;-75
2022/05/04 07:47:30;;;;;;;6.10;3.00;;;614.40;1254.40;;;;;;5093725;28;20024;-72
2022/05/04 07:49:56;;;;;;;5.95;2.90;;;614.40;1254.40;;;;;;5093735;28;20095;-75
2022/05/04 07:52:22;;;;;;;7.13;2.95;;;;;;;;;;5093652;28;20028;-75
2022/05/04 07:54:49;;;;;;;8.45;3.17;;;615.00;1152.00;;;;;;5093750;28;20016;-75
2022/05/04 07:57:15;;;;;;;6.93;2.90;;;614.90;1177.60;;;;;;5093550;28;20065;-75
2022/05/04 07:59:41;;;;;;;6.88;2.63;;;;;;;;;;5093784;28;20099;-75
2022/05/04 08:04:51;;;;;;;6.05;2.58;;;640.00;1203.20;;;;;;5094016;28;20089;-69
2022/05/04 08:07:18;;;;;;;5.13;2.55;;;640.10;1126.40;;;;;;5093392;28;20039;-73
2022/05/04 08:09:45;;;;;;;4.28;2.72;;;640.60;1203.20;;;;;;5075258;28;20062;-75
2022/05/04 08:12:13;;;;;;;4.90;2.78;;;640.70;1203.20;;;;;;5093649;28;20024;-71
2022/05/04 08:14:39;;;;;;;60.05;4.78;;;665.60;1049.60;;;;;;5093485;28;20020;-75
2022/05/04 08:17:06;;;;;;;6.22;2.58;;;665.60;1075.20;;;;;;5093514;28;20061;-69
2022/05/04 08:19:32;;;;;;;4.65;2.70;;;640.80;998.40;;;;;;5093284;28;20393;-71
2022/05/04 08:21:58;;;;;;;6.40;4.00;;;640.80;1049.60;;;;;;5093360;28;20028;-74
2022/05/04 08:24:24;;;;;;;;;;;665.70;1049.60;;;;;;5093777;28;20024;-76
2022/05/04 08:26:50;;;;;;;;;;;665.60;1049.60;;;;;;5093443;28;20288;-69
2022/05/04 08:29:15;;;;;;;;;;;665.90;1075.20;;;;;;5093614;28;19912;-69
2022/05/04 08:31:41;;;;;;;;;;;;;;;;;;5093993;28;20348;-76
2022/05/04 08:34:07;;;;;;;;;;;;;;;;;;5093845;28;20006;-75
2022/05/04 08:36:37;;;;;;;;;;;;;;;;;;5092985;28;19923;-72
2022/05/04 08:39:03;;;;;;;;;;;;;;;;;;5094028;28;19911;-72
2022/05/04 08:41:29;;;;;;;;;;;;;;;;;;5093820;28;19904;-73
2022/05/04 08:43:55;;;;;;;;;;;;;;;;;;5093797;28;19954;-70
2022/05/04 08:46:21;;;;;;;;;;;666.50;1024.00;;;;;;5093656;28;19957;-76
2022/05/04 08:48:47;;;;;;;;;;;666.40;1049.60;;;;;;5074977;28;20330;-70
2022/05/04 08:51:13;;;;;;;;;;;;;;;;;;5093066;28;19926;-71
2022/05/04 08:53:42;;;;;;;;;;;;;;;;;;5093199;28;19904;-76
2022/05/04 08:56:08;;;;;;;;;;;;;;;;;;5093030;28;19919;-76
2022/05/04 08:58:34;;;;;;;;;;;;;;;;;;5075019;28;19908;-75
2022/05/04 09:01:02;;;;;;;;;;;;;;;;;;5092908;28;20311;-76
2022/05/04 09:03:28;;;;;;;;;;;691.30;1049.60;;;;;;5075128;28;19908;-75
2022/05/04 09:05:54;;;;;;;;;;;691.20;1049.60;;;;;;5093348;28;19922;-72
2022/05/04 09:08:22;;;;;;;;;;;;;;;;;;5093284;28;20376;-73
2022/05/04 09:10:47;;;;;;;;;;;691.90;1024.00;;;;;;5093510;28;19939;-75
2022/05/04 09:13:13;;;;;;;;;;;691.90;998.40;;;;;;5093464;28;20022;-73
2022/05/04 09:15:40;;;;;;;;;;;691.90;1075.20;;;;;;5093511;28;19949;-70
2022/05/04 09:18:06;;;;;;;;;;;716.80;1075.20;;;;;;5093528;28;19915;-70
2022/05/04 09:20:45;;;;;;;;;;;;;;;;;;5093053;28;20378;-71
2022/05/04 09:23:11;;;;;;;;;;;;;;;;;;5093524;28;20002;-72
2022/05/04 09:25:37;;;;;;;;;;;666.40;1075.20;;;;;;5093142;28;20276;-71
2022/05/04 09:28:02;;;;;;;;;;;666.10;1075.20;;;;;;5093287;28;19910;-73
2022/05/04 09:30:28;;;;;;;;;;;640.80;1049.60;;;;;;5093275;28;19973;-75
2022/05/04 09:32:54;;;;;;;;;;;640.30;1075.20;;;;;;5093186;28;20257;-70
2022/05/04 09:35:19;;;;;;;;;;;640.00;1075.20;;;;;;5075148;28;20011;-71
2022/05/04 09:46:05;;;;;;;;;;;614.90;1100.80;;;;;;5093812;28;19918;-70
2022/05/04 09:48:32;;;;;;;;;;;640.60;1126.40;;;;;;5096432;28;19904;-70
2022/05/04 09:51:08;;;;;;;;;;;665.70;1024.00;;;;;;5079191;28;19912;-70
2022/05/04 09:53:34;;;;;;;;;;;666.10;1024.00;;;;;;5097514;28;19968;-70
2022/05/04 09:56:01;;;;;;;;;;;691.20;972.80;;;;;;5097315;28;19904;-70
2022/05/04 09:58:27;;;;;;;;;;;691.50;1024.00;;;;;;5097218;28;19908;-71
2022/05/04 10:00:53;;;;;;;;;;;691.80;947.20;;;;;;5097246;28;19904;-71
2022/05/04 10:03:19;;;;;;;;;;;692.10;947.20;;;;;;5097135;28;20014;-72
2022/05/04 10:05:48;;;;;;;;;;;716.90;972.80;;;;;;5097347;28;20428;-73
2022/05/04 10:08:14;;;;;;;;;;;;;;;;;;5097067;28;19908;-71
2022/05/04 10:10:41;;;;;;;;;;;;;;;;;;5097009;28;19911;-71
2022/05/04 10:13:08;;;;;;;;;;;691.60;998.40;;;;;;5096996;28;19904;-70
2022/05/04 10:15:35;;;;;;;;;;;666.40;998.40;;;;;;5096907;28;19914;-71
2022/05/04 10:18:05;;;;;;;;;;;666.00;1049.60;;;;;;5096896;28;19904;-70
2022/05/04 10:20:39;;;;;;;;;;;666.20;1024.00;;;;;;5097132;28;20301;-70
2022/05/04 10:23:09;;;;;;;;;;;665.70;1049.60;;;;;;5096794;28;20340;-70
2022/05/04 10:25:35;;;;;;;;;;;;;;;;;;5096645;28;19908;-75
2022/05/04 10:28:05;;;;;;;;;;;666.30;1049.60;;;;;;5096701;28;19904;-70
2022/05/04 10:30:31;;;;;;;;;;;691.30;972.80;;;;;;5096698;28;19904;-70
2022/05/04 10:33:08;;;;;;;;;;;691.50;972.80;;;;;;5096756;28;19915;-71
2022/05/04 10:35:35;;;;;;;;;;;692.10;972.80;;;;;;5096363;28;19920;-70
2022/05/04 10:38:01;;;;;;;;;;;716.90;972.80;;;;;;5096454;28;19954;-70
2022/05/04 10:40:36;;;;;;;;;;;717.00;998.40;;;;;;5096436;28;19904;-72
2022/05/04 10:43:09;;;;;;;;;;;691.90;947.20;;;;;;5096340;28;20325;-70
2022/05/04 10:45:39;;;;;;;;;;;691.50;947.20;;;;;;5096610;28;20044;-71
2022/05/04 10:48:20;;;;;;;;;;;691.50;998.40;;;;;;5096582;28;19995;-70
2022/05/04 10:51:06;;;;;;;;;;;691.50;972.80;;;;;;5096262;28;19904;-70
2022/05/04 10:53:31;;;;;;;;;;;691.90;972.80;;;;;;5081846;28;19904;-70
2022/05/04 10:56:03;;;;;;;;;;;692.10;947.20;;;;;;5096172;28;20015;-70
2022/05/04 10:58:36;;;;;;;;;;;717.00;972.80;;;;;;5095436;28;20318;-69
2022/05/04 11:01:02;;;;;;;;;;;717.20;947.20;;;;;;5095890;28;19904;-70
2022/05/04 11:03:35;;;;;;;;;;;717.30;998.40;;;;;;5096001;28;19927;-70
2022/05/04 11:06:10;;;;;;;;;;;717.60;947.20;;;;;;5095913;28;19927;-69
2022/05/04 11:08:36;;;;;;;;;;;717.50;947.20;;;;;;5095860;28;19904;-69
2022/05/04 11:11:04;;;;;;;;;;;717.40;947.20;;;;;;5095468;28;19908;-70
2022/05/04 11:13:31;;;;;;;;;;;717.00;972.80;;;;;;5095329;28;20276;-69
2022/05/04 11:16:01;;;;;;;;;;;717.20;972.80;;;;;;5095503;28;19916;-70
2022/05/04 11:18:28;;;;;;;;;;;717.20;947.20;;;;;;5094274;28;19913;-71
2022/05/04 11:20:54;;;;;;;;;;;717.30;947.20;;;;;;5093866;28;20489;-76
2022/05/04 11:23:25;;;;;;;;;;;717.20;921.60;;;;;;5094727;28;19920;-74
2022/05/04 11:25:51;;;;;;;;;;;691.90;972.80;;;;;;5094769;28;19918;-72
2022/05/04 11:28:19;;;;;;;;;;;691.50;998.40;;;;;;5095209;28;19983;-71
2022/05/04 11:30:45;;;;;;;;;;;691.60;998.40;;;;;;5094923;28;19919;-69
2022/05/04 11:33:14;;;;;;;;;;;691.40;947.20;;;;;;5095434;28;19904;-72
2022/05/04 11:35:41;;;;;;;;;;;691.70;972.80;;;;;;5093080;28;19919;-75
2022/05/04 11:38:07;;;;;;;;;;;691.80;972.80;;;;;;5095022;28;20368;-72
2022/05/04 11:40:32;;;;;;;;;;;716.80;998.40;;;;;;5095003;28;19999;-71
2022/05/04 11:42:58;;;;;;;;;;;717.00;1024.00;;;;;;5094191;28;20006;-72
2022/05/04 11:45:24;;;;;;;;;;;691.90;998.40;;;;;;5094433;28;19958;-75
2022/05/04 11:47:51;;;;;;;;;;;691.60;972.80;;;;;;5094598;28;19908;-70
2022/05/04 11:50:17;;;;;;;;;;;691.30;972.80;;;;;;5094847;28;19949;-72
2022/05/04 11:52:44;;;;;;;;;;;691.80;972.80;;;;;;5094665;28;19938;-71
2022/05/04 11:55:10;;;;;;;;;;;716.90;947.20;;;;;;5094247;28;19923;-74
2022/05/04 11:57:42;;;;;;;;;;;716.80;972.80;;;;;;5094010;28;19904;-76
2022/05/04 12:00:17;;;;;;;;;;;691.70;947.20;;;;;;5091716;28;19908;-77
2022/05/04 12:02:42;;;;;;;;;;;691.30;972.80;;;;;;5091648;28;19905;-73
2022/05/04 12:05:08;;;;;;;;;;;666.50;1024.00;;;;;;5094104;28;19910;-73
2022/05/04 12:07:34;;;;;;;;;;;666.40;1024.00;;;;;;5093689;28;20371;-73
2022/05/04 12:10:00;;;;;;;;;;;666.30;1024.00;;;;;;5094323;28;19949;-70
2022/05/04 12:12:25;;;;;;;;;;;691.40;998.40;;;;;;5094073;28;19951;-72
2022/05/04 12:14:51;;;;;;;;;;;691.90;947.20;;;;;;5093802;28;19908;-71
2022/05/04 12:17:23;;;;;;;;;;;717.00;972.80;;;;;;5093899;28;20052;-70
2022/05/04 12:19:49;;;;;;;;;;;717.30;998.40;;;;;;5093313;28;19915;-71
2022/05/04 12:22:15;;;;;;;;;;;717.50;947.20;;;;;;5072613;28;19908;-72
2022/05/04 12:24:42;;;;;;;;;;;717.60;947.20;;;;;;5072539;28;19908;-72
2022/05/04 12:27:08;;;;;;;;;;;742.40;947.20;;;;;;5073847;28;20272;-78
2022/05/04 12:35:22;;;;;;;;;;;716.80;972.80;;;;;;5060802;28;19908;-72
2022/05/04 12:37:50;;;;;;;;;;;717.30;972.80;;;;;;5061222;28;19934;-71
2022/05/04 12:40:16;;;;;;;;;;;717.30;921.60;;;;;;5072732;28;19904;-73
2022/05/04 12:42:42;;;;;;;;;;;717.30;921.60;;;;;;5073859;28;20277;-71
2022/05/04 12:45:14;;;;;;;;;;;717.30;896.00;;;;;;5073789;28;20081;-72
2022/05/04 12:47:40;;;;;;;;;;;717.20;921.60;;;;;;5073910;28;20395;-70
2022/05/04 12:50:06;;;;;;;;;;;717.30;947.20;;;;;;5073719;28;19908;-73
2022/05/04 12:52:34;;;;;;;;;;;717.60;921.60;;;;;;5073770;28;19911;-70
2022/05/04 12:55:00;;;;;;;;;;;742.50;921.60;;;;;;5073792;28;20406;-71
2022/05/04 12:57:26;;;;;;;;;;;717.50;921.60;;;;;;5072423;28;19905;-73
2022/05/04 12:59:51;;;;;;;;;;;717.30;921.60;;;;;;5072457;28;20378;-73
2022/05/04 13:02:17;;;;;;;;;;;691.80;921.60;;;;;;5082770;28;19915;-71
2022/05/04 13:04:43;;;;;;;;;;;691.30;972.80;;;;;;5093841;28;19904;-71
2022/05/04 13:07:09;;;;;;;;;;;691.30;972.80;;;;;;5093728;28;19912;-72
2022/05/04 13:09:35;;;;;;;;;;;691.30;972.80;;;;;;5093127;28;20006;-73
2022/05/04 13:12:01;;;;;;;;;;;666.40;972.80;;;;;;5093589;28;20311;-71
2022/05/04 13:14:27;;;;;;;;;;;666.30;998.40;;;;;;5093275;28;19908;-72
2022/05/04 13:16:53;;;;;;;;;;;691.40;947.20;;;;;;5074979;28;19908;-76
2022/05/04 13:19:18;;;;;;;;;;;692.10;921.60;;;;;;5092512;28;19944;-71
2022/05/04 13:21:44;;;;;;;;;;;716.80;921.60;;;;;;5093661;28;19908;-74
2022/05/04 13:24:10;;;;;;;;;;;717.20;972.80;;;;;;5097551;28;19947;-71